Terminal Aerodrome Forecast
Issued by NWS Pendleton, OR

Home | Current Version | Previous Version | Text Only | Print | Product List | Glossary On
Versions: 1 2 3 4 5 6 7 8 9 10 11 12 13 14
000
FTUS46 KPDT 282320
TAFPDT
TAF
KPDT 282320Z 2900/2924 02007KT P6SM FEW080
     FM290400 14005KT P6SM SKC
     FM291800 34006KT P6SM FEW080=

USA.gov is the U.S. government's official web portal to all federal, state and local government web resources and services.